Time;durP1;ratioP1;P1;durP2;ratioP2;P2;SDS_P1;SDS_P2;PMS_P1;PMS_P2;Temp;Humidity;BMP_temperature;BMP_pressure;BME280_temperature;BME280_humidity;BME280_pressure;Samples;Min_cycle;Max_cycle;Signal;HPM_P1;HPM_P2
2022/09/03 00:01:22;;;;;;;2.90;0.55;;;17.70;67.60;;;;;;5111466;28;20408;-72
2022/09/03 00:04:05;;;;;;;1.60;0.40;;;17.70;67.60;;;;;;5114561;27;20395;-71
2022/09/03 00:06:39;;;;;;;2.50;0.50;;;17.70;67.70;;;;;;5131252;27;20403;-71
2022/09/03 00:09:14;;;;;;;2.15;0.60;;;17.60;67.90;;;;;;5111397;28;20393;-71
2022/09/03 00:11:59;;;;;;;1.42;0.50;;;17.60;67.60;;;;;;5113228;27;20411;-70
2022/09/03 00:14:33;;;;;;;3.92;0.60;;;17.60;68.50;;;;;;5131137;27;20486;-71
2022/09/03 00:17:06;;;;;;;2.97;0.43;;;17.60;67.60;;;;;;5130287;27;20399;-71
2022/09/03 00:19:38;;;;;;;2.10;0.40;;;17.60;67.80;;;;;;5117881;27;20408;-70
2022/09/03 00:22:20;;;;;;;2.17;0.40;;;17.60;68.20;;;;;;5131021;27;20406;-71
2022/09/03 00:24:48;;;;;;;2.15;0.40;;;17.60;67.70;;;;;;5130275;27;20394;-71
2022/09/03 00:27:19;;;;;;;2.80;0.38;;;17.60;68.10;;;;;;5112552;27;20422;-72
2022/09/03 00:29:58;;;;;;;1.80;0.40;;;17.50;67.70;;;;;;5127073;27;20442;-70
2022/09/03 00:32:36;;;;;;;3.28;0.40;;;17.60;67.80;;;;;;5101053;28;20435;-71
2022/09/03 00:35:05;;;;;;;1.60;0.40;;;17.60;67.70;;;;;;5112213;27;20453;-71
2022/09/03 00:37:31;;;;;;;3.08;0.52;;;17.50;67.80;;;;;;5125455;27;20402;-71
2022/09/03 00:39:57;;;;;;;2.38;0.40;;;17.50;67.60;;;;;;5113206;27;20407;-70
2022/09/03 00:42:57;;;;;;;2.50;0.50;;;17.50;67.90;;;;;;5125280;27;20403;-71
2022/09/03 00:45:37;;;;;;;1.10;0.30;;;17.50;68.10;;;;;;5111787;27;20914;-70
2022/09/03 00:48:19;;;;;;;2.20;0.50;;;17.50;67.90;;;;;;5119307;28;20414;-71
2022/09/03 00:51:03;;;;;;;2.30;0.60;;;17.50;68.40;;;;;;5110257;28;20442;-70
2022/09/03 00:53:36;;;;;;;1.58;0.50;;;17.50;68.30;;;;;;5117708;28;20474;-70
2022/09/03 00:56:17;;;;;;;1.93;0.40;;;17.40;68.50;;;;;;5116863;28;20773;-71
2022/09/03 00:59:05;;;;;;;1.77;0.70;;;17.40;68.70;;;;;;5111583;28;20725;-70
2022/09/03 01:01:54;;;;;;;4.72;0.68;;;17.40;69.10;;;;;;5118094;28;20430;-70
2022/09/03 01:04:56;;;;;;;3.17;0.40;;;17.40;69.20;;;;;;5109373;28;20408;-70
2022/09/03 01:07:45;;;;;;;2.90;0.30;;;17.40;69.60;;;;;;5129892;28;20408;-71
2022/09/03 01:10:26;;;;;;;2.00;0.40;;;17.40;69.40;;;;;;5128850;28;20878;-70
2022/09/03 01:13:08;;;;;;;1.90;0.50;;;17.40;69.70;;;;;;5118377;28;20413;-71
2022/09/03 01:16:00;;;;;;;1.02;0.40;;;17.30;69.60;;;;;;5117083;28;20433;-71
2022/09/03 01:18:34;;;;;;;2.13;0.40;;;17.40;69.80;;;;;;5129079;28;20407;-70
2022/09/03 01:21:37;;;;;;;2.42;0.50;;;17.30;69.90;;;;;;5117065;28;20397;-70
2022/09/03 01:24:43;;;;;;;1.40;0.50;;;17.30;69.80;;;;;;5110315;28;20405;-71
2022/09/03 01:27:51;;;;;;;1.75;0.60;;;17.30;69.80;;;;;;5118435;27;20415;-71
2022/09/03 01:30:18;;;;;;;3.65;0.50;;;17.30;70.50;;;;;;5090367;28;20499;-72
2022/09/03 01:32:47;;;;;;;2.15;0.47;;;17.20;70.10;;;;;;5116281;28;20924;-71
2022/09/03 01:35:44;;;;;;;2.88;0.55;;;17.20;70.10;;;;;;5120256;28;20424;-70
2022/09/03 01:38:33;;;;;;;2.10;0.47;;;17.20;70.80;;;;;;5109518;28;20807;-70
2022/09/03 01:44:15;;;;;;;3.38;0.65;;;17.10;70.50;;;;;;5036812;28;1078950;-70
2022/09/03 01:46:45;;;;;;;2.45;0.60;;;17.10;70.90;;;;;;5120711;27;20435;-71
2022/09/03 01:49:36;;;;;;;2.90;0.77;;;17.10;70.80;;;;;;5113021;27;20413;-70
2022/09/03 01:52:12;;;;;;;2.50;0.50;;;17.00;70.70;;;;;;5110216;27;20767;-71
2022/09/03 01:54:44;;;;;;;2.22;0.40;;;17.00;70.90;;;;;;5119170;27;20516;-71
2022/09/03 01:57:43;;;;;;;1.48;0.50;;;17.00;71.00;;;;;;5127180;27;20413;-70
2022/09/03 02:00:19;;;;;;;2.35;0.60;;;16.90;71.10;;;;;;5122947;27;20457;-71
2022/09/03 02:02:47;;;;;;;1.67;0.50;;;17.00;71.40;;;;;;5118782;27;20494;-70
2022/09/03 02:05:19;;;;;;;1.55;0.55;;;16.90;71.80;;;;;;5111146;27;20479;-71
2022/09/03 02:07:47;;;;;;;2.25;0.60;;;16.90;71.80;;;;;;5130447;27;20459;-72
2022/09/03 02:10:18;;;;;;;2.85;0.52;;;16.90;72.10;;;;;;5116528;27;20403;-71
2022/09/03 02:12:50;;;;;;;1.77;0.57;;;16.90;72.00;;;;;;5119457;27;20427;-70
2022/09/03 02:15:19;;;;;;;2.00;0.80;;;16.90;72.80;;;;;;5110183;27;20430;-71
2022/09/03 02:17:48;;;;;;;1.90;0.55;;;16.80;71.90;;;;;;5129897;27;20477;-71
2022/09/03 02:20:23;;;;;;;2.17;0.50;;;16.80;71.70;;;;;;5107332;28;20448;-71
2022/09/03 02:22:49;;;;;;;1.13;0.50;;;16.70;71.70;;;;;;5123662;27;20468;-71
2022/09/03 02:25:16;;;;;;;1.85;0.45;;;16.70;71.90;;;;;;5129470;27;20395;-71
2022/09/03 02:27:43;;;;;;;3.20;0.50;;;16.70;72.00;;;;;;5108115;28;20408;-71
2022/09/03 02:30:09;;;;;;;1.30;0.50;;;16.70;71.70;;;;;;5117409;27;20401;-70
2022/09/03 02:32:36;;;;;;;1.35;0.50;;;16.70;72.20;;;;;;5129393;27;20394;-71
2022/09/03 02:35:01;;;;;;;1.27;0.70;;;16.70;72.30;;;;;;5128686;27;20441;-70
2022/09/03 02:37:27;;;;;;;2.77;0.53;;;16.60;72.10;;;;;;5128830;27;20403;-71
2022/09/03 02:39:53;;;;;;;1.50;0.57;;;16.60;71.90;;;;;;5129677;27;20406;-70
2022/09/03 02:42:19;;;;;;;2.05;0.68;;;16.60;72.40;;;;;;5128638;27;20472;-70
2022/09/03 02:44:53;;;;;;;2.67;0.55;;;16.50;72.20;;;;;;5120603;27;20546;-71
2022/09/03 02:47:19;;;;;;;3.15;0.57;;;16.60;72.50;;;;;;5123065;27;20478;-72
2022/09/03 02:49:48;;;;;;;3.55;0.85;;;16.50;72.90;;;;;;5108136;28;20412;-70
2022/09/03 02:52:15;;;;;;;3.05;0.57;;;16.50;72.80;;;;;;5094184;28;20447;-70
2022/09/03 02:54:43;;;;;;;2.40;0.55;;;16.40;72.70;;;;;;5117480;27;20435;-70
2022/09/03 02:57:13;;;;;;;2.10;0.50;;;16.40;73.00;;;;;;5114078;27;20406;-71
2022/09/03 02:59:38;;;;;;;5.60;0.80;;;16.40;73.00;;;;;;5124440;27;20923;-71
2022/09/03 03:02:04;;;;;;;2.72;0.70;;;16.40;72.90;;;;;;5120448;27;20398;-71
2022/09/03 03:04:31;;;;;;;2.25;0.63;;;16.40;73.20;;;;;;5111632;27;20438;-70
2022/09/03 03:06:57;;;;;;;1.93;0.60;;;16.30;73.40;;;;;;5113196;27;20898;-71
2022/09/03 03:09:23;;;;;;;1.58;0.52;;;16.30;73.30;;;;;;5109035;28;20404;-70
2022/09/03 03:11:50;;;;;;;3.17;0.80;;;16.30;73.60;;;;;;5117369;27;20409;-71
2022/09/03 03:14:16;;;;;;;2.55;0.60;;;16.30;73.80;;;;;;5122333;27;20432;-71
2022/09/03 03:16:42;;;;;;;2.85;0.73;;;16.20;73.80;;;;;;5119817;27;20394;-71
2022/09/03 03:19:08;;;;;;;2.67;0.60;;;16.20;74.10;;;;;;5123994;27;20918;-70
2022/09/03 03:21:33;;;;;;;2.07;0.67;;;16.20;73.90;;;;;;5116416;27;20926;-70
2022/09/03 03:24:01;;;;;;;1.67;0.68;;;16.20;74.10;;;;;;5114545;27;20404;-71
2022/09/03 03:26:26;;;;;;;2.25;0.80;;;16.10;74.10;;;;;;5113211;27;20423;-71
2022/09/03 03:28:56;;;;;;;2.30;0.60;;;16.10;74.40;;;;;;5096888;27;20458;-70
2022/09/03 03:31:23;;;;;;;1.73;0.65;;;16.10;75.20;;;;;;5115878;27;20446;-70
2022/09/03 03:33:59;;;;;;;2.22;0.70;;;16.10;74.60;;;;;;5123244;27;20396;-71
2022/09/03 03:36:27;;;;;;;3.78;0.85;;;16.10;75.10;;;;;;5108491;28;20496;-71
2022/09/03 03:38:55;;;;;;;3.10;0.90;;;16.00;74.80;;;;;;5108539;28;20415;-70
2022/09/03 03:41:30;;;;;;;1.67;0.80;;;16.00;75.10;;;;;;5122149;28;20930;-70
2022/09/03 03:43:58;;;;;;;1.88;0.80;;;16.00;75.20;;;;;;5109789;28;20400;-71
2022/09/03 03:46:27;;;;;;;3.20;0.90;;;16.00;75.20;;;;;;5080255;28;20481;-71
2022/09/03 03:48:53;;;;;;;5.80;1.10;;;16.00;75.30;;;;;;5081994;28;20411;-70
2022/09/03 03:51:19;;;;;;;2.40;0.85;;;16.00;75.40;;;;;;5067978;28;20400;-70
2022/09/03 03:53:45;;;;;;;2.83;0.80;;;16.00;75.40;;;;;;5068879;28;20769;-71
2022/09/03 03:56:13;;;;;;;2.37;0.90;;;16.00;75.50;;;;;;5067675;28;20480;-70
2022/09/03 03:58:44;;;;;;;2.92;0.68;;;16.00;75.80;;;;;;5086360;28;20406;-71
2022/09/03 04:01:09;;;;;;;2.25;0.80;;;16.00;75.80;;;;;;5085408;28;20794;-70
2022/09/03 04:03:35;;;;;;;2.17;0.60;;;15.90;76.00;;;;;;5087810;28;20402;-71
2022/09/03 04:06:03;;;;;;;2.03;0.82;;;16.00;76.20;;;;;;5087108;28;20494;-70
2022/09/03 04:08:29;;;;;;;2.78;0.57;;;15.90;76.40;;;;;;5087185;28;20890;-70
2022/09/03 04:11:00;;;;;;;1.65;0.70;;;15.90;75.80;;;;;;5087782;28;20398;-71
2022/09/03 04:13:34;;;;;;;1.83;0.73;;;15.90;75.90;;;;;;5087532;28;20489;-70
2022/09/03 04:16:03;;;;;;;1.83;0.80;;;15.90;76.10;;;;;;5087718;28;20756;-70
2022/09/03 04:18:30;;;;;;;2.75;0.80;;;15.90;76.00;;;;;;5077912;28;20418;-71
2022/09/03 04:21:04;;;;;;;3.20;0.80;;;15.90;76.30;;;;;;5080493;28;20896;-71
2022/09/03 04:23:38;;;;;;;2.17;0.70;;;15.80;76.70;;;;;;5091302;28;20406;-70
2022/09/03 04:26:05;;;;;;;2.45;0.93;;;15.80;77.00;;;;;;5105548;28;20402;-71
2022/09/03 04:28:31;;;;;;;2.92;0.77;;;15.80;76.80;;;;;;5098536;28;20396;-70
2022/09/03 04:31:02;;;;;;;2.50;0.60;;;15.80;77.20;;;;;;5100711;28;20425;-71
2022/09/03 04:33:28;;;;;;;2.70;0.70;;;15.70;77.10;;;;;;5086496;28;20415;-70
2022/09/03 04:36:13;;;;;;;2.38;0.80;;;15.70;77.20;;;;;;5095925;28;20429;-70
2022/09/03 04:38:41;;;;;;;2.90;0.80;;;15.70;76.70;;;;;;5099685;28;20410;-71
2022/09/03 04:41:09;;;;;;;2.10;0.60;;;15.70;76.70;;;;;;5090586;28;20398;-70
2022/09/03 04:43:35;;;;;;;3.13;0.88;;;15.70;77.10;;;;;;5090727;28;20467;-71
2022/09/03 04:46:04;;;;;;;2.30;0.73;;;15.70;77.20;;;;;;5120512;27;20399;-72
2022/09/03 04:48:31;;;;;;;2.10;0.87;;;15.70;77.00;;;;;;5131407;27;20399;-72
2022/09/03 04:51:13;;;;;;;2.88;0.80;;;15.70;77.30;;;;;;5118484;27;20479;-71
2022/09/03 04:53:44;;;;;;;2.90;0.85;;;15.70;77.20;;;;;;5111873;28;20468;-73
2022/09/03 04:56:25;;;;;;;2.55;0.93;;;15.70;77.40;;;;;;5112388;27;20890;-72
2022/09/03 04:58:59;;;;;;;2.70;0.85;;;15.60;77.40;;;;;;5120106;27;20793;-72
2022/09/03 05:01:27;;;;;;;2.70;0.77;;;15.70;77.40;;;;;;5126940;27;20390;-72
2022/09/03 05:03:54;;;;;;;2.72;0.90;;;15.60;77.10;;;;;;5121375;27;20487;-72
2022/09/03 05:06:20;;;;;;;2.78;1.10;;;15.60;77.40;;;;;;5134415;27;20464;-72
2022/09/03 05:08:53;;;;;;;1.77;0.70;;;15.60;77.70;;;;;;5126907;27;20415;-72
2022/09/03 05:11:19;;;;;;;3.88;0.90;;;15.60;77.80;;;;;;5149954;27;20405;-72
2022/09/03 05:13:54;;;;;;;3.28;0.80;;;15.60;77.60;;;;;;5143443;27;20411;-70
2022/09/03 05:16:20;;;;;;;1.75;0.88;;;15.60;78.10;;;;;;5116585;27;20403;-71
2022/09/03 05:18:47;;;;;;;2.00;0.77;;;15.60;77.70;;;;;;5113925;27;20742;-71
2022/09/03 05:21:15;;;;;;;2.47;0.70;;;15.60;77.80;;;;;;5096451;28;20411;-71
2022/09/03 05:23:43;;;;;;;1.80;0.70;;;15.60;78.10;;;;;;5122341;27;20443;-71
2022/09/03 05:26:12;;;;;;;1.98;0.60;;;15.60;77.90;;;;;;5126281;27;20402;-71
2022/09/03 05:28:40;;;;;;;3.30;0.90;;;15.50;78.00;;;;;;5109911;28;20408;-71
2022/09/03 05:31:15;;;;;;;2.00;0.63;;;15.50;78.10;;;;;;5126193;27;20405;-72
2022/09/03 05:33:43;;;;;;;1.85;0.77;;;15.50;77.60;;;;;;5102991;28;20906;-71
2022/09/03 05:36:12;;;;;;;1.80;0.80;;;15.50;78.00;;;;;;5127384;27;20438;-71
2022/09/03 05:38:38;;;;;;;1.85;0.70;;;15.50;78.10;;;;;;5131025;27;20923;-71
2022/09/03 05:41:06;;;;;;;2.90;0.90;;;15.50;77.70;;;;;;5126635;27;20400;-72
2022/09/03 05:43:33;;;;;;;2.60;0.75;;;15.60;78.00;;;;;;5127810;27;20406;-70
2022/09/03 05:46:01;;;;;;;3.45;0.80;;;15.60;78.10;;;;;;5130647;27;20455;-71
2022/09/03 05:48:30;;;;;;;1.88;0.85;;;15.60;78.10;;;;;;5112603;27;20901;-71
2022/09/03 05:51:04;;;;;;;2.05;0.75;;;15.60;78.10;;;;;;5121058;27;20500;-72
2022/09/03 05:53:33;;;;;;;3.78;0.90;;;15.60;78.30;;;;;;5110538;27;21004;-71
2022/09/03 05:56:05;;;;;;;2.93;0.70;;;15.60;78.10;;;;;;5105378;27;20509;-71
2022/09/03 05:58:33;;;;;;;1.63;0.70;;;15.70;78.20;;;;;;5099602;27;20426;-72
2022/09/03 06:00:59;;;;;;;1.92;0.70;;;15.70;79.10;;;;;;5117233;27;20483;-71
2022/09/03 06:03:25;;;;;;;2.22;0.77;;;15.70;78.30;;;;;;5129663;27;20470;-72
2022/09/03 06:05:53;;;;;;;1.88;0.68;;;15.70;79.10;;;;;;5120881;27;20420;-71
2022/09/03 06:08:19;;;;;;;3.65;0.90;;;15.80;78.30;;;;;;5119633;27;20858;-72
2022/09/03 06:10:44;;;;;;;2.42;1.08;;;15.80;78.60;;;;;;5123901;27;20754;-72
2022/09/03 06:13:10;;;;;;;2.20;0.80;;;15.80;78.50;;;;;;5123827;27;20403;-71
2022/09/03 06:15:36;;;;;;;1.60;0.75;;;15.80;78.40;;;;;;5127714;27;20431;-71
2022/09/03 06:18:02;;;;;;;2.50;0.80;;;15.80;78.30;;;;;;5127073;27;20481;-71
2022/09/03 06:20:28;;;;;;;2.07;0.83;;;15.80;79.20;;;;;;5119289;27;20503;-72
2022/09/03 06:22:54;;;;;;;2.35;0.60;;;15.90;78.30;;;;;;5122898;27;20407;-71
2022/09/03 06:25:20;;;;;;;1.92;0.63;;;15.90;78.20;;;;;;5124514;27;20394;-71
2022/09/03 06:27:46;;;;;;;3.15;0.70;;;15.90;78.40;;;;;;5123077;27;20396;-72
2022/09/03 06:30:12;;;;;;;3.37;0.70;;;15.90;78.20;;;;;;5126019;27;20402;-71
2022/09/03 06:32:45;;;;;;;3.60;1.02;;;16.00;78.50;;;;;;5126570;27;20387;-71
2022/09/03 06:35:12;;;;;;;2.90;0.70;;;16.00;78.40;;;;;;5125755;27;20429;-72
2022/09/03 06:37:41;;;;;;;2.40;1.00;;;16.00;78.40;;;;;;5118904;27;20831;-71
2022/09/03 06:40:12;;;;;;;3.10;0.70;;;16.10;78.50;;;;;;5123464;27;20395;-72
2022/09/03 06:42:41;;;;;;;2.53;0.73;;;16.10;78.40;;;;;;5119251;27;20393;-72
2022/09/03 06:45:10;;;;;;;1.45;0.60;;;16.10;78.40;;;;;;5126007;27;20775;-71
2022/09/03 06:47:36;;;;;;;2.43;0.80;;;16.10;78.10;;;;;;5123930;27;20402;-71
2022/09/03 06:50:02;;;;;;;4.80;1.00;;;16.20;78.60;;;;;;5127672;27;20419;-71
2022/09/03 06:52:28;;;;;;;2.17;0.85;;;16.20;78.30;;;;;;5128001;27;20403;-71
2022/09/03 06:54:54;;;;;;;6.93;1.10;;;16.20;77.90;;;;;;5106375;27;20436;-71
2022/09/03 06:57:20;;;;;;;2.55;0.85;;;16.30;78.40;;;;;;5124933;27;20470;-71
2022/09/03 06:59:45;;;;;;;2.45;0.68;;;16.30;78.30;;;;;;5121013;27;20796;-73
2022/09/03 07:02:11;;;;;;;1.77;0.73;;;16.30;78.60;;;;;;5123727;27;21790;-73
2022/09/03 07:04:37;;;;;;;2.95;0.80;;;16.40;78.20;;;;;;5127269;27;20394;-73
2022/09/03 07:07:02;;;;;;;4.17;0.80;;;16.40;77.80;;;;;;5125465;27;20435;-72
2022/09/03 07:09:28;;;;;;;2.97;0.70;;;16.50;77.80;;;;;;5083481;28;21082;-73
2022/09/03 07:11:54;;;;;;;2.40;0.60;;;16.50;77.50;;;;;;5122650;27;20896;-72
2022/09/03 07:14:21;;;;;;;1.50;0.60;;;16.50;77.50;;;;;;5123640;27;20469;-72
2022/09/03 07:16:48;;;;;;;2.40;0.80;;;16.60;77.50;;;;;;5119540;27;20904;-72
2022/09/03 07:19:14;;;;;;;1.67;0.70;;;16.60;77.10;;;;;;5124066;27;20399;-72
2022/09/03 07:21:41;;;;;;;1.85;0.60;;;16.70;77.60;;;;;;5102647;28;20400;-72
2022/09/03 07:24:07;;;;;;;1.53;0.60;;;16.70;76.80;;;;;;5122569;27;20430;-71
2022/09/03 07:26:35;;;;;;;2.38;0.70;;;16.80;76.80;;;;;;5128227;27;20935;-71
2022/09/03 07:29:01;;;;;;;6.40;1.20;;;16.80;76.70;;;;;;5097181;27;20403;-71
2022/09/03 07:31:32;;;;;;;2.75;0.70;;;16.80;76.60;;;;;;5128061;27;20441;-71
2022/09/03 07:34:00;;;;;;;2.13;0.60;;;16.90;76.40;;;;;;5114706;27;20402;-71
2022/09/03 07:36:28;;;;;;;2.75;0.70;;;16.90;76.10;;;;;;5099732;28;21077;-70
2022/09/03 07:38:56;;;;;;;2.17;0.60;;;16.90;76.10;;;;;;5118747;28;20418;-71
2022/09/03 07:41:23;;;;;;;2.08;0.60;;;17.00;76.50;;;;;;5128609;28;20406;-70
2022/09/03 07:43:49;;;;;;;2.20;0.95;;;17.00;76.10;;;;;;5113901;28;20974;-71
2022/09/03 07:46:23;;;;;;;1.73;0.60;;;17.10;76.30;;;;;;5107987;28;20412;-71
2022/09/03 07:48:53;;;;;;;1.85;0.63;;;17.10;76.40;;;;;;5113140;28;20404;-71
2022/09/03 07:51:20;;;;;;;3.20;0.60;;;17.20;77.20;;;;;;5107835;28;20408;-71
2022/09/03 07:53:47;;;;;;;2.80;0.60;;;17.30;76.30;;;;;;5098360;28;20424;-70
2022/09/03 07:56:14;;;;;;;2.17;0.82;;;17.40;76.10;;;;;;5119910;28;20409;-72
2022/09/03 07:58:41;;;;;;;2.72;0.60;;;17.50;76.30;;;;;;5127142;28;20414;-71
2022/09/03 08:01:20;;;;;;;2.00;0.60;;;17.50;76.10;;;;;;5120501;28;20415;-71
2022/09/03 08:03:47;;;;;;;1.92;0.63;;;17.60;76.40;;;;;;5113372;28;20451;-70
2022/09/03 08:06:15;;;;;;;1.52;0.60;;;17.70;75.80;;;;;;5107642;28;20458;-70
2022/09/03 08:08:41;;;;;;;1.40;0.50;;;17.80;75.40;;;;;;5123732;28;20398;-70
2022/09/03 08:11:12;;;;;;;1.73;0.50;;;17.90;74.90;;;;;;5118137;28;20979;-70
2022/09/03 08:13:47;;;;;;;1.38;0.50;;;17.90;74.50;;;;;;5127840;27;20850;-71
2022/09/03 08:16:17;;;;;;;2.17;0.80;;;18.00;74.90;;;;;;5113768;27;20905;-70
2022/09/03 08:18:43;;;;;;;2.28;0.60;;;18.00;74.90;;;;;;5128871;27;20404;-70
2022/09/03 08:21:15;;;;;;;2.08;0.70;;;18.10;74.80;;;;;;5102278;28;20416;-70
2022/09/03 08:23:44;;;;;;;1.83;0.60;;;18.20;74.70;;;;;;5123136;27;20404;-71
2022/09/03 08:26:10;;;;;;;2.47;0.77;;;18.30;74.80;;;;;;5112892;27;21024;-71
2022/09/03 08:28:36;;;;;;;2.00;0.60;;;18.40;73.70;;;;;;5111887;27;20731;-71
2022/09/03 08:31:22;;;;;;;2.47;0.60;;;18.40;73.30;;;;;;5111874;27;20404;-71
2022/09/03 08:33:50;;;;;;;2.42;0.60;;;18.50;73.10;;;;;;5117588;27;20417;-70
2022/09/03 08:36:24;;;;;;;3.10;0.50;;;18.50;73.80;;;;;;5117946;27;20418;-72
2022/09/03 08:38:53;;;;;;;2.90;0.65;;;18.60;73.90;;;;;;5130360;27;20454;-72
2022/09/03 08:41:36;;;;;;;2.53;0.50;;;18.70;72.70;;;;;;5112365;27;20410;-72
2022/09/03 08:44:26;;;;;;;1.40;0.50;;;18.80;73.00;;;;;;5117755;27;20438;-71
2022/09/03 08:47:01;;;;;;;3.00;0.68;;;18.90;72.60;;;;;;5111237;27;20540;-71
2022/09/03 08:50:07;;;;;;;1.95;0.55;;;18.90;72.50;;;;;;5118212;27;20466;-72
2022/09/03 08:52:48;;;;;;;4.20;0.57;;;19.00;72.70;;;;;;5038922;28;21020;-71
2022/09/03 08:55:35;;;;;;;2.42;0.50;;;19.10;71.90;;;;;;5088085;28;20440;-72
2022/09/03 08:58:09;;;;;;;2.90;0.70;;;19.20;71.60;;;;;;5118170;27;20446;-72
2022/09/03 09:01:00;;;;;;;2.97;0.60;;;19.30;71.60;;;;;;5129041;27;20903;-72
2022/09/03 09:03:56;;;;;;;2.60;0.50;;;19.40;71.00;;;;;;5100632;28;20401;-72
2022/09/03 09:06:34;;;;;;;3.42;0.50;;;19.40;71.10;;;;;;5120062;27;20414;-71
2022/09/03 09:09:16;;;;;;;2.05;0.60;;;19.60;71.40;;;;;;5125060;27;20402;-72
2022/09/03 09:12:07;;;;;;;2.80;0.75;;;19.70;71.30;;;;;;5114550;27;20926;-71
2022/09/03 09:14:44;;;;;;;1.30;0.40;;;19.80;71.00;;;;;;5121604;27;20415;-71
2022/09/03 09:17:33;;;;;;;2.35;0.60;;;20.00;70.70;;;;;;5124916;27;20420;-71
2022/09/03 09:20:20;;;;;;;3.00;0.40;;;20.20;71.20;;;;;;5124365;27;20495;-71
2022/09/03 09:22:59;;;;;;;3.20;0.70;;;20.70;69.70;;;;;;5109665;27;20426;-71
2022/09/03 09:25:25;;;;;;;2.28;0.65;;;21.60;68.40;;;;;;5124361;27;20415;-71
2022/09/03 09:27:59;;;;;;;2.20;0.43;;;22.30;66.90;;;;;;5131071;27;20414;-70
2022/09/03 09:30:25;;;;;;;1.60;0.30;;;23.00;65.50;;;;;;5119902;27;20452;-70
2022/09/03 09:32:50;;;;;;;2.38;0.40;;;23.60;65.00;;;;;;5130130;27;20507;-71
2022/09/03 09:35:18;;;;;;;3.37;0.40;;;24.10;63.10;;;;;;5105539;28;20953;-71
2022/09/03 09:37:55;;;;;;;3.08;0.40;;;24.50;62.60;;;;;;5124388;27;20403;-71
2022/09/03 09:40:31;;;;;;;3.33;0.40;;;25.00;61.80;;;;;;5103099;28;20495;-71
2022/09/03 09:43:18;;;;;;;2.60;0.50;;;25.30;59.00;;;;;;5117043;27;20424;-72
2022/09/03 09:45:49;;;;;;;2.88;0.43;;;25.50;58.40;;;;;;5115691;27;20503;-71
2022/09/03 09:48:38;;;;;;;1.92;0.40;;;25.50;57.90;;;;;;5121674;27;20423;-72
2022/09/03 09:51:06;;;;;;;2.10;0.32;;;25.60;57.20;;;;;;5099789;28;20428;-71
2022/09/03 09:53:32;;;;;;;2.97;0.50;;;25.70;58.10;;;;;;5116733;27;20470;-71
2022/09/03 09:55:57;;;;;;;3.15;0.50;;;25.90;58.20;;;;;;5122221;27;20862;-71
2022/09/03 09:58:26;;;;;;;3.03;0.40;;;26.00;57.10;;;;;;5119166;27;20497;-70
2022/09/03 10:01:02;;;;;;;1.52;0.50;;;26.20;57.80;;;;;;5129723;27;20403;-71
2022/09/03 10:03:34;;;;;;;1.95;0.47;;;26.40;55.70;;;;;;5101410;28;20467;-71
2022/09/03 10:09:14;;;;;;;1.42;0.45;;;26.60;55.10;;;;;;5120405;27;20408;-72
2022/09/03 10:11:43;;;;;;;2.35;0.30;;;26.80;53.70;;;;;;5123434;27;20411;-71
2022/09/03 10:14:17;;;;;;;8.30;0.70;;;26.90;55.10;;;;;;5125029;27;20423;-71
2022/09/03 10:16:48;;;;;;;3.30;0.70;;;27.10;54.60;;;;;;5096881;28;20407;-71
2022/09/03 10:19:21;;;;;;;2.88;0.40;;;27.30;53.70;;;;;;5119665;27;21826;-72
2022/09/03 10:22:04;;;;;;;1.98;0.43;;;27.50;53.30;;;;;;5116149;27;20420;-72
2022/09/03 10:24:46;;;;;;;2.00;0.40;;;27.60;53.30;;;;;;5112696;27;20431;-72
2022/09/03 10:27:15;;;;;;;2.60;0.37;;;27.70;54.00;;;;;;5110031;28;20858;-71
2022/09/03 10:29:41;;;;;;;2.90;0.47;;;27.80;52.80;;;;;;5120662;27;20430;-71
2022/09/03 10:33:02;;;;;;;2.60;0.40;;;27.80;52.10;;;;;;5116855;27;20402;-72
2022/09/03 10:35:29;;;;;;;1.08;0.38;;;28.00;50.80;;;;;;5102648;27;20438;-71
2022/09/03 10:38:16;;;;;;;3.97;0.40;;;28.10;51.70;;;;;;5129220;27;20412;-71
2022/09/03 10:41:01;;;;;;;4.65;0.47;;;28.20;51.10;;;;;;5116400;27;20424;-71
2022/09/03 10:43:52;;;;;;;2.95;0.73;;;28.50;51.60;;;;;;5115511;27;20421;-71
2022/09/03 10:46:27;;;;;;;2.25;0.40;;;28.80;50.20;;;;;;5123430;27;20399;-71
2022/09/03 10:48:56;;;;;;;1.70;0.40;;;28.80;49.80;;;;;;5122133;27;20449;-71
2022/09/03 10:51:48;;;;;;;1.85;0.20;;;28.90;49.30;;;;;;5123972;27;20412;-71
2022/09/03 10:54:44;;;;;;;2.40;0.35;;;29.00;50.30;;;;;;5125829;27;20422;-71
2022/09/03 10:57:38;;;;;;;2.72;0.50;;;29.20;48.60;;;;;;5127662;27;20403;-72
2022/09/03 11:00:09;;;;;;;8.20;0.40;;;29.20;47.10;;;;;;5120424;27;20476;-72
2022/09/03 11:03:02;;;;;;;2.05;0.50;;;29.00;47.10;;;;;;5126755;27;20957;-72
2022/09/03 11:05:30;;;;;;;3.20;0.50;;;29.10;47.70;;;;;;5123158;27;20411;-71
2022/09/03 11:08:05;;;;;;;1.63;0.40;;;29.20;47.90;;;;;;5127895;27;20935;-71
2022/09/03 11:10:34;;;;;;;1.40;0.32;;;29.40;46.80;;;;;;5119821;27;20412;-72
2022/09/03 11:13:16;;;;;;;0.95;0.40;;;29.60;48.90;;;;;;5116540;27;20529;-71
2022/09/03 11:15:47;;;;;;;;;;;29.90;46.90;;;;;;5104374;28;20047;-71
2022/09/03 11:18:20;;;;;;;;;;;30.00;46.20;;;;;;5122825;27;20484;-72
2022/09/03 11:20:48;;;;;;;;;;;30.00;46.80;;;;;;5119805;27;19920;-72
2022/09/03 11:23:15;;;;;;;;;;;30.00;46.70;;;;;;5131073;27;19971;-71
2022/09/03 11:25:45;;;;;;;;;;;30.20;47.30;;;;;;5127809;27;19926;-71
2022/09/03 11:28:32;;;;;;;0.60;0.20;;;30.40;46.50;;;;;;5128487;27;20052;-71
2022/09/03 11:31:16;;;;;;;3.25;0.25;;;30.60;46.80;;;;;;5112017;27;20410;-72
2022/09/03 11:34:14;;;;;;;2.72;0.52;;;30.80;47.00;;;;;;5114574;27;20463;-72
2022/09/03 11:36:40;;;;;;;;;;;30.90;45.60;;;;;;5120230;27;20047;-71
2022/09/03 11:39:18;;;;;;;;;;;30.90;42.90;;;;;;5098475;28;19965;-72
2022/09/03 11:41:56;;;;;;;;;;;30.70;45.10;;;;;;5121517;28;19920;-71
2022/09/03 11:44:22;;;;;;;;;;;30.80;45.80;;;;;;5114623;28;20297;-72
2022/09/03 11:46:57;;;;;;;;;;;31.00;45.80;;;;;;5121075;28;19919;-71
2022/09/03 11:49:32;;;;;;;4.00;0.30;;;31.10;43.60;;;;;;5132467;27;19920;-72
2022/09/03 11:52:02;;;;;;;2.30;0.30;;;31.10;43.70;;;;;;5133247;27;20405;-71
2022/09/03 11:54:31;;;;;;;2.78;0.40;;;31.00;44.10;;;;;;5124376;27;20798;-71
2022/09/03 11:57:13;;;;;;;1.73;0.30;;;30.90;44.50;;;;;;5119318;27;20410;-72
2022/09/03 11:59:41;;;;;;;3.33;0.25;;;30.90;45.20;;;;;;5132677;27;20960;-71
2022/09/03 12:02:29;;;;;;;0.68;0.20;;;31.00;43.20;;;;;;5124880;27;20569;-72
2022/09/03 12:04:57;;;;;;;;;;;30.90;42.90;;;;;;5131673;27;20035;-72
2022/09/03 12:07:41;;;;;;;;;;;31.00;44.30;;;;;;5134852;27;20381;-71
2022/09/03 12:10:20;;;;;;;;;;;31.20;44.80;;;;;;5122790;27;19919;-72
2022/09/03 12:12:55;;;;;;;;;;;31.60;45.00;;;;;;5130764;27;19919;-73
2022/09/03 12:15:32;;;;;;;;;;;31.90;44.00;;;;;;5126364;27;19967;-72
2022/09/03 12:18:19;;;;;;;;;;;31.90;44.60;;;;;;5119951;27;19926;-72
2022/09/03 12:20:46;;;;;;;;;;;31.90;43.00;;;;;;5130074;27;19927;-71
2022/09/03 12:23:27;;;;;;;1.27;0.20;;;32.00;43.70;;;;;;5123566;27;19924;-72
2022/09/03 12:25:53;;;;;;;3.20;0.40;;;32.20;45.00;;;;;;5118601;27;20118;-71
2022/09/03 12:28:22;;;;;;;2.20;0.30;;;32.30;43.50;;;;;;5100218;28;20431;-72
2022/09/03 12:30:48;;;;;;;;;;;32.20;43.70;;;;;;5108705;27;20509;-71
2022/09/03 12:33:17;;;;;;;3.53;0.30;;;32.30;42.70;;;;;;5106892;27;19919;-73
2022/09/03 12:35:43;;;;;;;1.58;0.20;;;32.40;43.50;;;;;;5133170;27;20031;-72
2022/09/03 12:38:12;;;;;;;4.33;0.30;;;32.50;41.30;;;;;;5118811;27;20465;-72
2022/09/03 12:40:42;;;;;;;2.92;0.17;;;32.30;43.30;;;;;;5119500;27;20038;-71
2022/09/03 12:43:12;;;;;;;;;;;32.30;42.70;;;;;;5121541;27;20044;-71
2022/09/03 12:45:42;;;;;;;;;;;32.40;41.40;;;;;;5120233;27;19919;-71
2022/09/03 12:48:15;;;;;;;0.80;0.28;;;32.20;41.00;;;;;;5093961;27;19927;-72
2022/09/03 12:50:43;;;;;;;1.00;0.20;;;32.10;41.80;;;;;;5107469;28;20447;-73
2022/09/03 12:53:16;;;;;;;5.68;0.90;;;32.20;42.10;;;;;;5114588;27;20448;-73
2022/09/03 12:55:55;;;;;;;3.63;0.40;;;32.50;42.70;;;;;;5140512;27;20410;-73
2022/09/03 12:58:42;;;;;;;1.65;0.20;;;32.70;41.70;;;;;;5118591;27;20058;-71
2022/09/03 13:01:15;;;;;;;2.88;0.30;;;32.70;41.40;;;;;;5152584;27;20051;-71
2022/09/03 13:04:07;;;;;;;2.90;0.20;;;32.70;41.40;;;;;;5138431;27;20042;-71
2022/09/03 13:07:06;;;;;;;2.08;0.30;;;32.70;41.60;;;;;;5115626;28;20059;-72
2022/09/03 13:09:36;;;;;;;0.82;0.20;;;32.70;41.20;;;;;;5143760;27;20055;-71
2022/09/03 13:12:05;;;;;;;2.17;0.30;;;32.90;40.70;;;;;;5117807;27;20035;-71
2022/09/03 13:14:46;;;;;;;1.75;0.13;;;32.90;40.30;;;;;;5114322;27;20047;-72
2022/09/03 13:17:26;;;;;;;0.98;0.30;;;33.00;40.40;;;;;;5118766;27;20187;-71
2022/09/03 13:20:11;;;;;;;1.27;0.30;;;33.00;41.00;;;;;;5121380;27;20031;-73
2022/09/03 13:23:01;;;;;;;0.25;0.10;;;33.10;40.30;;;;;;5130217;27;20058;-73
2022/09/03 13:26:04;;;;;;;2.45;0.30;;;33.40;40.10;;;;;;5132242;27;20043;-71
2022/09/03 13:28:38;;;;;;;0.70;0.20;;;33.30;39.70;;;;;;5101364;28;20047;-72
2022/09/03 13:31:45;;;;;;;3.90;0.28;;;33.20;39.90;;;;;;5113233;27;20074;-72